createdAt,value
2018-02-13T00:00:05.315Z,19.00
2018-02-13T00:02:35.279Z,19.53
2018-02-13T00:05:03.429Z,22.87
2018-02-13T00:07:31.573Z,20.87
2018-02-13T00:09:59.706Z,18.93
2018-02-13T00:12:28.200Z,19.30
2018-02-13T00:14:56.305Z,20.50
2018-02-13T00:17:25.195Z,21.20
2018-02-13T00:19:54.078Z,19.40
2018-02-13T00:22:22.219Z,18.07
2018-02-13T00:24:50.339Z,19.97
2018-02-13T00:27:19.241Z,20.47
2018-02-13T00:29:47.352Z,21.33
2018-02-13T00:32:15.490Z,19.73
2018-02-13T00:34:43.606Z,22.07
2018-02-13T00:37:12.226Z,20.60
2018-02-13T00:39:40.328Z,22.37
2018-02-13T00:42:08.481Z,21.07
2018-02-13T00:44:37.351Z,20.90
2018-02-13T00:47:05.480Z,19.30
2018-02-13T00:49:33.589Z,20.87
2018-02-13T00:52:01.754Z,22.10
2018-02-13T00:54:29.862Z,20.70
2018-02-13T00:56:58.770Z,19.73
2018-02-13T00:59:26.879Z,19.77
2018-02-13T01:01:55.003Z,21.73
2018-02-13T01:04:24.401Z,19.57
2018-02-13T01:06:53.297Z,18.83
2018-02-13T01:09:23.104Z,18.13
2018-02-13T01:11:52.456Z,19.93
2018-02-13T01:14:20.563Z,21.20
2018-02-13T01:16:48.702Z,20.33
2018-02-13T01:19:17.226Z,22.10
2018-02-13T01:21:45.864Z,19.63
2018-02-13T01:24:13.972Z,19.43
2018-02-13T01:26:42.103Z,19.13
2018-02-13T01:29:10.230Z,18.00
2018-02-13T01:31:38.370Z,18.17
2018-02-13T01:34:06.534Z,17.97
2018-02-13T01:36:35.063Z,18.90
2018-02-13T01:39:03.255Z,20.10
2018-02-13T01:41:31.396Z,19.20
2018-02-13T01:43:59.505Z,19.87
2018-02-13T01:46:27.642Z,19.90
2018-02-13T01:48:55.751Z,18.90
2018-02-13T01:51:23.905Z,19.80
2018-02-13T01:53:52.013Z,20.90
2018-02-13T01:56:20.907Z,20.80
2018-02-13T01:58:49.616Z,20.20
2018-02-13T02:01:17.773Z,18.80
2018-02-13T02:03:46.636Z,20.10
2018-02-13T02:06:14.778Z,18.30
2018-02-13T02:08:42.903Z,19.30
2018-02-13T02:11:11.783Z,22.67
2018-02-13T02:13:40.654Z,19.40
2018-02-13T02:16:08.774Z,18.00
2018-02-13T02:18:36.922Z,17.97
2018-02-13T02:21:05.812Z,17.87
2018-02-13T02:23:34.808Z,18.53
2018-02-13T02:26:02.923Z,16.37
2018-02-13T02:28:31.059Z,18.60
2018-02-13T02:30:59.918Z,18.57
2018-02-13T02:33:28.060Z,19.00
2018-02-13T02:35:57.358Z,19.87
2018-02-13T02:38:25.497Z,18.40
2018-02-13T02:40:54.786Z,18.03
2018-02-13T02:43:23.398Z,19.57
2018-02-13T02:45:51.503Z,17.40
2018-02-13T02:48:20.736Z,19.10
2018-02-13T02:50:48.869Z,21.60
2018-02-13T02:53:17.467Z,20.57
2018-02-13T02:55:45.604Z,18.47
2018-02-13T02:58:14.791Z,18.40
2018-02-13T03:00:42.903Z,18.33
2018-02-13T03:03:11.541Z,19.27
2018-02-13T03:05:41.971Z,20.00
2018-02-13T03:08:10.184Z,21.60
2018-02-13T03:10:38.296Z,19.23
2018-02-13T03:13:07.622Z,18.20
2018-02-13T03:15:35.752Z,19.67
2018-02-13T03:18:03.884Z,20.30
2018-02-13T03:20:32.012Z,18.47
2018-02-13T03:23:00.150Z,19.40
2018-02-13T03:25:29.400Z,19.40
2018-02-13T03:27:59.234Z,19.47
2018-02-13T03:30:27.342Z,19.73
2018-02-13T03:32:55.498Z,18.33
2018-02-13T03:35:23.619Z,16.77
2018-02-13T03:37:51.763Z,18.60
2018-02-13T03:40:19.882Z,18.90
2018-02-13T03:42:48.057Z,18.77
2018-02-13T03:45:16.943Z,18.80
2018-02-13T03:47:45.856Z,19.33
2018-02-13T03:50:13.979Z,20.70
2018-02-13T03:52:42.120Z,18.83
2018-02-13T03:55:10.224Z,19.50
2018-02-13T03:57:38.357Z,20.20
2018-02-13T04:00:06.463Z,30.40
2018-02-13T04:02:35.528Z,21.20
2018-02-13T04:05:06.227Z,20.70
2018-02-13T04:07:34.827Z,20.83
2018-02-13T04:10:02.948Z,19.47
2018-02-13T04:12:33.023Z,19.70
2018-02-13T04:15:01.158Z,19.87
2018-02-13T04:17:29.320Z,18.47
2018-02-13T04:19:57.451Z,20.17
2018-02-13T04:22:25.598Z,19.07
2018-02-13T04:24:53.699Z,18.83
2018-02-13T04:27:21.840Z,20.17
2018-02-13T04:29:50.715Z,20.60
2018-02-13T04:32:22.065Z,20.57
2018-02-13T04:34:51.290Z,19.20
2018-02-13T04:37:20.195Z,18.50
2018-02-13T04:39:50.416Z,19.40
2018-02-13T04:42:18.562Z,17.27
2018-02-13T04:44:46.659Z,19.87
2018-02-13T04:47:17.039Z,19.47
2018-02-13T04:49:45.143Z,19.13
2018-02-13T04:52:14.036Z,20.73
2018-02-13T04:54:42.916Z,21.70
2018-02-13T04:57:11.083Z,21.50
2018-02-13T04:59:39.190Z,19.60
2018-02-13T05:02:09.248Z,21.30
2018-02-13T05:04:38.383Z,20.93
2018-02-13T05:07:08.297Z,20.27
2018-02-13T05:09:36.407Z,20.30
2018-02-13T05:12:05.160Z,22.20
2018-02-13T05:14:34.074Z,20.00
2018-02-13T05:17:03.491Z,20.20
2018-02-13T05:19:31.630Z,20.40
2018-02-13T05:22:00.506Z,20.80
2018-02-13T05:24:29.123Z,21.90
2018-02-13T05:26:58.341Z,19.00
2018-02-13T05:29:26.939Z,19.13
2018-02-13T05:31:55.057Z,19.97
2018-02-13T05:34:23.201Z,19.37
2018-02-13T05:36:51.309Z,20.77
2018-02-13T05:39:21.460Z,21.00
2018-02-13T05:41:49.585Z,20.57
2018-02-13T05:44:17.747Z,19.43
2018-02-13T05:46:45.859Z,18.20
2018-02-13T05:49:14.767Z,18.33
2018-02-13T05:51:42.911Z,19.77
2018-02-13T05:54:12.450Z,21.10
2018-02-13T05:56:42.651Z,20.90
2018-02-13T05:59:12.834Z,19.70
2018-02-13T06:01:40.983Z,22.70
2018-02-13T06:04:10.235Z,18.47
2018-02-13T06:06:38.360Z,20.20
2018-02-13T06:09:09.176Z,18.30
2018-02-13T06:11:38.448Z,18.57
2018-02-13T06:14:07.362Z,20.00
2018-02-13T06:16:36.855Z,19.30
2018-02-13T06:19:07.686Z,19.97
2018-02-13T06:21:38.377Z,20.23
2018-02-13T06:24:07.523Z,19.57
2018-02-13T06:26:37.760Z,18.43
2018-02-13T06:29:07.344Z,18.53
2018-02-13T06:31:36.919Z,19.00
2018-02-13T06:34:05.427Z,19.70
2018-02-13T06:36:34.126Z,20.43
2018-02-13T06:39:03.248Z,18.13
2018-02-13T06:41:34.163Z,20.60
2018-02-13T06:44:04.329Z,18.03
2018-02-13T06:46:32.892Z,19.57
2018-02-13T06:49:02.142Z,18.50
2018-02-13T06:51:30.660Z,18.57
2018-02-13T06:53:58.794Z,19.83
2018-02-13T06:56:27.421Z,18.87
2018-02-13T06:58:56.926Z,17.03
2018-02-13T07:01:25.058Z,17.27
2018-02-13T07:03:54.617Z,18.10
2018-02-13T07:06:24.792Z,18.77
2018-02-13T07:08:54.738Z,15.93
2018-02-13T07:11:25.581Z,15.17
2018-02-13T07:13:54.451Z,18.90
2018-02-13T07:16:25.293Z,16.20
2018-02-13T07:18:56.491Z,16.40
2018-02-13T07:21:25.440Z,15.00
2018-02-13T07:23:54.786Z,15.00
2018-02-13T07:26:23.394Z,15.00
2018-02-13T07:28:51.515Z,12.27
2018-02-13T07:31:23.447Z,12.10
2018-02-13T07:33:53.707Z,11.43
2018-02-13T07:36:21.826Z,12.80
2018-02-13T07:38:50.751Z,11.43
2018-02-13T07:41:19.609Z,11.63
2018-02-13T07:43:48.241Z,12.00
2018-02-13T07:46:16.351Z,11.77
2018-02-13T07:48:45.067Z,12.43
2018-02-13T07:51:14.995Z,12.53
2018-02-13T07:53:44.352Z,11.93
2018-02-13T07:56:13.804Z,12.23
2018-02-13T07:58:43.926Z,12.20
2018-02-13T08:01:13.517Z,11.10
2018-02-13T08:03:42.920Z,11.27
2018-02-13T08:06:11.809Z,11.77
2018-02-13T08:08:41.111Z,11.73
2018-02-13T08:11:12.535Z,10.40
2018-02-13T08:13:41.138Z,10.73
2018-02-13T08:16:11.356Z,11.33
2018-02-13T08:18:40.587Z,11.20
2018-02-13T08:21:10.095Z,11.77
2018-02-13T08:23:39.351Z,10.93
2018-02-13T08:26:07.503Z,10.10
2018-02-13T08:28:36.367Z,10.97
2018-02-13T08:31:04.488Z,10.97
2018-02-13T08:33:34.629Z,11.17
2018-02-13T08:36:03.209Z,10.73
2018-02-13T08:38:31.803Z,10.17
2018-02-13T08:41:00.699Z,9.60
2018-02-13T08:43:30.140Z,10.23
2018-02-13T08:45:58.354Z,10.70
2018-02-13T08:48:26.524Z,10.70
2018-02-13T08:50:55.758Z,10.13
2018-02-13T08:53:23.911Z,10.57
2018-02-13T08:55:53.394Z,10.67
2018-02-13T08:58:21.538Z,9.70
2018-02-13T09:00:52.211Z,9.80
2018-02-13T09:03:22.247Z,9.90
2018-02-13T09:05:51.148Z,9.30
2018-02-13T09:08:20.930Z,9.83
2018-02-13T09:10:50.275Z,9.90
2018-02-13T09:13:18.382Z,10.57
2018-02-13T09:15:48.147Z,10.70
2018-02-13T09:18:17.295Z,10.17
2018-02-13T09:20:45.917Z,10.17
2018-02-13T09:23:16.239Z,10.47
2018-02-13T09:25:48.495Z,9.20
2018-02-13T09:28:16.622Z,9.47
2018-02-13T09:30:48.131Z,9.77
2018-02-13T09:33:17.036Z,10.13
2018-02-13T09:35:45.949Z,8.80
2018-02-13T09:38:14.080Z,9.67
2018-02-13T09:40:43.645Z,10.00
2018-02-13T09:43:11.772Z,10.20
2018-02-13T09:45:44.190Z,10.63
2018-02-13T09:48:12.323Z,9.73
2018-02-13T09:50:41.678Z,9.37
2018-02-13T09:53:11.562Z,10.30
2018-02-13T09:55:39.716Z,9.37
2018-02-13T09:58:09.238Z,10.40
2018-02-13T10:00:37.359Z,9.50
2018-02-13T10:03:05.470Z,9.00
2018-02-13T10:05:34.370Z,11.13
2018-02-13T10:08:02.928Z,10.77
2018-02-13T10:10:31.815Z,8.80
2018-02-13T10:13:00.691Z,9.97
2018-02-13T10:15:29.579Z,9.83
2018-02-13T10:17:58.286Z,10.33
2018-02-13T10:20:26.402Z,10.10
2018-02-13T10:22:55.649Z,9.63
2018-02-13T10:25:24.964Z,10.00
2018-02-13T10:27:53.832Z,9.83
2018-02-13T10:30:21.964Z,9.73
2018-02-13T10:32:50.062Z,8.37
2018-02-13T10:35:18.185Z,10.90
2018-02-13T10:37:47.648Z,9.97
2018-02-13T10:40:16.193Z,10.83
2018-02-13T10:42:44.299Z,10.60
2018-02-13T10:45:15.063Z,9.50
2018-02-13T10:47:44.420Z,9.23
2018-02-13T10:50:12.559Z,11.00
2018-02-13T10:52:40.680Z,10.00
2018-02-13T10:55:08.827Z,9.43
2018-02-13T10:57:37.598Z,10.53
2018-02-13T11:00:05.722Z,10.50
2018-02-13T11:02:35.685Z,10.57
2018-02-13T11:05:03.820Z,10.67
2018-02-13T11:07:32.526Z,9.77
2018-02-13T11:10:01.432Z,9.80
2018-02-13T11:12:30.304Z,10.40
2018-02-13T11:14:59.198Z,9.63
2018-02-13T11:17:28.063Z,10.37
2018-02-13T11:19:56.193Z,9.97
2018-02-13T11:22:24.298Z,9.53
2018-02-13T11:24:52.423Z,9.77
2018-02-13T11:27:20.536Z,11.47
2018-02-13T11:29:48.650Z,9.03
2018-02-13T11:32:17.542Z,9.83
2018-02-13T11:34:46.459Z,8.63
2018-02-13T11:37:14.587Z,9.83
2018-02-13T11:39:42.706Z,9.93
2018-02-13T11:42:10.820Z,9.07
2018-02-13T11:44:39.524Z,9.27
2018-02-13T11:47:07.688Z,10.40
2018-02-13T11:49:35.823Z,10.17
2018-02-13T11:52:05.212Z,9.03
2018-02-13T11:54:33.342Z,8.80
2018-02-13T11:57:05.416Z,9.97
2018-02-13T11:59:33.538Z,8.50
2018-02-13T12:02:01.647Z,9.60
2018-02-13T12:04:29.806Z,8.43
2018-02-13T12:06:57.911Z,8.50
2018-02-13T12:09:26.046Z,10.50
2018-02-13T12:11:54.175Z,8.43
2018-02-13T12:14:24.284Z,9.30
2018-02-13T12:16:54.334Z,9.07
2018-02-13T12:19:22.486Z,9.07
2018-02-13T12:21:51.409Z,9.20
2018-02-13T12:24:20.578Z,8.70
2018-02-13T12:26:48.710Z,9.17
2018-02-13T12:29:16.835Z,9.00
2018-02-13T12:31:45.329Z,8.67
2018-02-13T12:34:14.346Z,8.43
2018-02-13T12:36:42.471Z,8.60
2018-02-13T12:39:10.585Z,9.17
2018-02-13T12:41:38.731Z,7.53
2018-02-13T12:44:06.847Z,7.20
2018-02-13T12:46:36.515Z,7.63
2018-02-13T12:49:04.621Z,7.80
2018-02-13T12:51:32.755Z,8.57
2018-02-13T12:54:00.859Z,8.40
2018-02-13T12:56:28.987Z,7.63
2018-02-13T12:58:57.889Z,8.10
2018-02-13T13:01:26.027Z,7.77
2018-02-13T13:03:54.136Z,8.30
2018-02-13T13:06:23.033Z,7.50
2018-02-13T13:08:51.146Z,7.30
2018-02-13T13:11:19.266Z,7.43
2018-02-13T13:13:47.819Z,7.90
2018-02-13T13:16:15.943Z,7.30
2018-02-13T13:18:44.046Z,7.37
2018-02-13T13:21:12.173Z,7.67
2018-02-13T13:23:41.394Z,9.27
2018-02-13T13:26:09.530Z,6.97
2018-02-13T13:28:38.419Z,7.93
2018-02-13T13:31:07.310Z,7.50
2018-02-13T13:33:36.179Z,7.10
2018-02-13T13:36:04.303Z,6.77
2018-02-13T13:38:32.398Z,7.10
2018-02-13T13:41:00.526Z,8.40
2018-02-13T13:43:29.407Z,7.43
2018-02-13T13:45:58.311Z,7.37
2018-02-13T13:48:27.169Z,8.27
2018-02-13T13:50:55.294Z,6.20
2018-02-13T13:53:23.430Z,5.50
2018-02-13T13:55:51.550Z,4.80
2018-02-13T13:58:19.658Z,5.10
2018-02-13T14:00:48.971Z,4.70
2018-02-13T14:03:17.085Z,4.73
2018-02-13T14:05:45.206Z,4.00
2018-02-13T14:08:13.310Z,4.90
2018-02-13T14:10:42.195Z,4.90
2018-02-13T14:13:11.057Z,5.10
2018-02-13T14:15:39.177Z,4.97
2018-02-13T14:18:07.276Z,5.00
2018-02-13T14:20:35.434Z,5.20
2018-02-13T14:23:04.573Z,4.90
2018-02-13T14:25:32.715Z,5.70
2018-02-13T14:28:00.818Z,7.70
2018-02-13T14:30:28.937Z,5.40
2018-02-13T14:32:57.808Z,4.50
2018-02-13T14:35:25.923Z,5.60
2018-02-13T14:37:54.018Z,5.97
2018-02-13T14:40:22.142Z,6.40
2018-02-13T14:42:50.252Z,6.17
2018-02-13T14:45:18.387Z,5.60
2018-02-13T14:47:47.264Z,6.10
2018-02-13T14:50:16.128Z,6.10
2018-02-13T14:52:44.267Z,6.53
2018-02-13T14:55:12.373Z,6.70
2018-02-13T14:57:40.540Z,6.50
2018-02-13T15:00:21.155Z,6.23
2018-02-13T15:02:50.128Z,5.60
2018-02-13T15:05:18.279Z,6.57
2018-02-13T15:07:49.722Z,6.30
2018-02-13T15:10:21.199Z,6.40
2018-02-13T15:12:49.327Z,6.17
2018-02-13T15:15:20.347Z,6.70
2018-02-13T15:17:52.310Z,6.27
2018-02-13T15:20:21.191Z,6.00
2018-02-13T15:22:51.233Z,6.43
2018-02-13T15:25:19.426Z,6.73
2018-02-13T15:27:50.688Z,5.83
2018-02-13T15:30:19.288Z,6.37
2018-02-13T15:32:50.635Z,5.90
2018-02-13T15:35:19.528Z,5.60
2018-02-13T15:37:48.414Z,5.60
2018-02-13T15:40:18.531Z,5.87
2018-02-13T15:42:47.439Z,6.37
2018-02-13T15:45:15.923Z,6.23
2018-02-13T15:47:44.068Z,5.77
2018-02-13T15:50:13.048Z,6.50
2018-02-13T15:52:41.167Z,6.60
2018-02-13T15:55:11.469Z,7.67
2018-02-13T15:57:40.209Z,7.40
2018-02-13T16:00:09.626Z,7.60
2018-02-13T16:02:38.268Z,7.60
2018-02-13T16:05:08.392Z,6.37
2018-02-13T16:07:41.063Z,7.80
2018-02-13T16:10:09.174Z,7.53
2018-02-13T16:12:37.307Z,7.80
2018-02-13T16:15:06.198Z,8.60
2018-02-13T16:17:35.099Z,8.07
2018-02-13T16:20:03.224Z,7.60
2018-02-13T16:22:32.515Z,7.97
2018-02-13T16:25:02.791Z,7.57
2018-02-13T16:27:33.998Z,7.10
2018-02-13T16:30:02.167Z,8.33
2018-02-13T16:32:30.287Z,7.57
2018-02-13T16:34:58.403Z,8.57
2018-02-13T16:37:26.523Z,7.20
2018-02-13T16:39:55.094Z,7.87
2018-02-13T16:42:25.222Z,7.43
2018-02-13T16:44:56.710Z,8.40
2018-02-13T16:47:24.844Z,8.20
2018-02-13T16:49:53.720Z,7.50
2018-02-13T16:52:24.572Z,7.50
2018-02-13T16:54:52.740Z,6.93
2018-02-13T16:57:23.763Z,7.37
2018-02-13T16:59:54.640Z,6.73
2018-02-13T17:02:23.539Z,7.00
2018-02-13T17:04:54.065Z,6.93
2018-02-13T17:07:22.238Z,8.90
2018-02-13T17:09:54.528Z,8.30
2018-02-13T17:12:24.264Z,8.70
2018-02-13T17:14:53.308Z,10.13
2018-02-13T17:17:22.214Z,10.40
2018-02-13T17:19:50.775Z,8.80
2018-02-13T17:22:19.119Z,8.57
2018-02-13T17:24:48.682Z,10.60
2018-02-13T17:27:17.662Z,15.63
2018-02-13T17:29:46.979Z,13.63
2018-02-13T17:32:15.885Z,10.57
2018-02-13T17:34:46.606Z,10.30
2018-02-13T17:37:14.732Z,10.00
2018-02-13T17:39:44.160Z,10.40
2018-02-13T17:42:12.309Z,10.27
2018-02-13T17:44:40.430Z,10.30
2018-02-13T17:47:08.581Z,9.83
2018-02-13T17:49:37.446Z,9.90
2018-02-13T17:52:05.627Z,9.37
2018-02-13T17:54:35.328Z,10.47
2018-02-13T17:57:04.486Z,9.93
2018-02-13T17:59:32.601Z,10.20
2018-02-13T18:02:01.195Z,10.20
2018-02-13T18:04:29.981Z,10.97
2018-02-13T18:06:59.732Z,10.40
2018-02-13T18:09:27.842Z,10.50
2018-02-13T18:11:55.978Z,10.47
2018-02-13T18:14:24.082Z,10.63
2018-02-13T18:16:53.474Z,10.93
2018-02-13T18:19:23.304Z,8.63
2018-02-13T18:21:51.438Z,10.00
2018-02-13T18:24:24.034Z,9.53
2018-02-13T18:26:52.186Z,9.03
2018-02-13T18:29:21.738Z,9.80
2018-02-13T18:31:53.063Z,10.33
2018-02-13T18:34:23.024Z,9.43
2018-02-13T18:36:51.952Z,8.77
2018-02-13T18:39:23.254Z,10.73
2018-02-13T18:41:52.603Z,11.30
2018-02-13T18:44:20.761Z,9.10
2018-02-13T18:46:50.778Z,8.90
2018-02-13T18:49:18.891Z,10.93
2018-02-13T18:51:47.039Z,11.20
2018-02-13T18:54:15.217Z,11.37
2018-02-13T18:56:43.385Z,12.13
2018-02-13T18:59:11.533Z,11.77
2018-02-13T19:01:39.656Z,11.67
2018-02-13T19:04:10.046Z,12.50
2018-02-13T19:06:38.955Z,14.63
2018-02-13T19:09:08.472Z,13.63
2018-02-13T19:11:36.594Z,13.70
2018-02-13T19:14:06.633Z,13.20
2018-02-13T19:16:36.139Z,13.40
2018-02-13T19:19:05.038Z,14.10
2018-02-13T19:21:35.267Z,14.20
2018-02-13T19:24:03.440Z,14.87
2018-02-13T19:26:33.547Z,14.23
2018-02-13T19:29:03.937Z,18.07
2018-02-13T19:31:32.126Z,15.13
2018-02-13T19:34:00.714Z,10.97
2018-02-13T19:36:30.649Z,10.33
2018-02-13T19:39:01.296Z,12.40
2018-02-13T19:41:29.420Z,13.07
2018-02-13T19:43:59.538Z,13.43
2018-02-13T19:46:27.679Z,11.60
2018-02-13T19:48:55.826Z,13.30
2018-02-13T19:51:25.752Z,11.80
2018-02-13T19:53:56.499Z,10.60
2018-02-13T19:56:24.614Z,10.40
2018-02-13T19:58:53.813Z,8.50
2018-02-13T20:01:22.434Z,8.37
2018-02-13T20:03:52.761Z,7.20
2018-02-13T20:06:21.643Z,8.00
2018-02-13T20:08:51.580Z,6.80
2018-02-13T20:11:20.968Z,8.07
2018-02-13T20:13:50.846Z,7.63
2018-02-13T20:16:20.324Z,7.43
2018-02-13T20:18:49.389Z,7.13
2018-02-13T20:21:18.775Z,7.93
2018-02-13T20:23:48.187Z,7.97
2018-02-13T20:26:18.079Z,7.23
2018-02-13T20:28:46.988Z,6.57
2018-02-13T20:31:15.854Z,8.90
2018-02-13T20:33:44.095Z,6.47
2018-02-13T20:36:12.642Z,7.70
2018-02-13T20:38:42.975Z,7.97
2018-02-13T20:41:12.665Z,8.03
2018-02-13T20:43:41.641Z,7.00
2018-02-13T20:46:09.748Z,5.77
2018-02-13T20:48:38.584Z,5.80
2018-02-13T20:51:09.336Z,6.30
2018-02-13T20:53:39.182Z,6.20
2018-02-13T20:59:01.859Z,5.90
2018-02-13T21:01:44.178Z,8.13
2018-02-13T21:04:23.039Z,5.70
2018-02-13T21:07:00.192Z,5.80
2018-02-13T21:09:36.370Z,6.53
2018-02-13T21:12:15.515Z,7.17
2018-02-13T21:15:03.870Z,6.27
2018-02-13T21:20:28.549Z,6.87
2018-02-13T21:23:12.590Z,6.03
2018-02-13T21:25:54.580Z,7.23
2018-02-13T21:28:24.914Z,6.73
2018-02-13T21:30:58.917Z,6.80
2018-02-13T21:33:43.341Z,7.70
2018-02-13T21:39:13.626Z,10.97
2018-02-13T21:41:52.421Z,12.80
2018-02-13T21:44:23.136Z,11.67
2018-02-13T21:46:56.140Z,15.97
2018-02-13T21:49:30.335Z,13.20
2018-02-13T21:52:13.948Z,13.80
2018-02-13T21:54:55.750Z,12.37
2018-02-13T21:57:26.570Z,13.30
2018-02-13T22:00:11.878Z,11.93
2018-02-13T22:03:14.390Z,9.63
2018-02-13T22:06:06.646Z,8.00
2018-02-13T22:08:41.817Z,9.07
2018-02-13T22:11:21.581Z,8.33
2018-02-13T22:13:58.286Z,7.83
2018-02-13T22:16:29.531Z,7.87
2018-02-13T22:19:07.998Z,8.50
2018-02-13T22:21:40.842Z,8.33
2018-02-13T22:24:08.965Z,8.30
2018-02-13T22:26:39.029Z,8.57
2018-02-13T22:29:17.068Z,9.00
2018-02-13T22:31:47.568Z,6.47
2018-02-13T22:34:20.343Z,6.97
2018-02-13T22:36:56.539Z,7.03
2018-02-13T22:39:25.897Z,7.00
2018-02-13T22:41:57.726Z,7.20
2018-02-13T22:44:40.241Z,8.57
2018-02-13T22:47:13.614Z,7.27
2018-02-13T22:52:32.319Z,6.40
2018-02-13T22:55:01.443Z,7.07
2018-02-13T22:57:46.371Z,7.10
2018-02-13T23:00:26.956Z,7.20
2018-02-13T23:02:59.838Z,8.80
2018-02-13T23:05:33.099Z,7.33
2018-02-13T23:08:07.657Z,6.90
2018-02-13T23:10:41.047Z,7.70
2018-02-13T23:13:19.720Z,7.70
2018-02-13T23:16:00.561Z,7.40
2018-02-13T23:18:37.508Z,7.60
2018-02-13T23:21:12.833Z,6.90
2018-02-13T23:23:41.761Z,7.50
2018-02-13T23:26:14.779Z,6.77
2018-02-13T23:28:43.814Z,6.90
2018-02-13T23:31:13.721Z,6.90
2018-02-13T23:33:53.632Z,7.87
2018-02-13T23:36:25.368Z,7.43
2018-02-13T23:39:07.063Z,7.60
2018-02-13T23:41:49.586Z,7.17
2018-02-13T23:44:32.239Z,8.00
2018-02-13T23:47:02.931Z,7.63
2018-02-13T23:49:35.159Z,8.80
2018-02-13T23:52:03.274Z,7.47
2018-02-13T23:54:41.946Z,7.47
2018-02-13T23:57:25.906Z,8.30
